Time;durP1;ratioP1;P1;durP2;ratioP2;P2;SDS_P1;SDS_P2;PMS_P1;PMS_P2;Temp;Humidity;BMP_temperature;BMP_pressure;BME280_temperature;BME280_humidity;BME280_pressure;Samples;Min_cycle;Max_cycle;Signal;HPM_P1;HPM_P2
2023/05/19 00:04:06;;;;;;;9.4;6;;;;;;;-132.3;0;78340;;;;
2023/05/19 00:14:06;;;;;;;11.1;7.2;;;;;;;-132.3;0;78340;;;;
2023/05/19 00:24:06;;;;;;;11.1;7.2;;;;;;;-132.3;0;78340;;;;
2023/05/19 00:34:06;;;;;;;11.1;7.2;;;;;;;-132.3;0;78330;;;;
2023/05/19 00:44:06;;;;;;;13.1;8.8;;;;;;;-132.3;0;78330;;;;
2023/05/19 00:54:06;;;;;;;16.3;9.4;;;;;;;-132.3;0;78330;;;;
2023/05/19 01:05:06;;;;;;;16.3;9.4;;;;;;;-132.3;0;78320;;;;
2023/05/19 01:15:06;;;;;;;16.3;9.4;;;;;;;-132.3;0;78340;;;;
2023/05/19 01:26:06;;;;;;;17.9;9.8;;;;;;;-132.3;0;78320;;;;
2023/05/19 01:36:06;;;;;;;17.9;9.8;;;;;;;-132.3;0;78310;;;;
2023/05/19 01:47:06;;;;;;;17.9;9.8;;;;;;;-132.3;0;78300;;;;
2023/05/19 01:57:06;;;;;;;12.8;7.1;;;;;;;-132.3;0;78300;;;;
2023/05/19 02:08:06;;;;;;;12.8;7.1;;;;;;;-132.3;0;78300;;;;
2023/05/19 02:19:06;;;;;;;12.8;7.1;;;;;;;-132.3;0;78320;;;;
2023/05/19 02:29:06;;;;;;;12.2;6.8;;;;;;;-132.3;0;78310;;;;
2023/05/19 02:40:06;;;;;;;12.2;6.8;;;;;;;-132.3;0;78300;;;;
2023/05/19 02:50:06;;;;;;;12.2;6.8;;;;;;;-132.3;0;78310;;;;
2023/05/19 03:00:07;;;;;;;12.6;9.7;;;;;;;-132.3;0;78310;;;;
2023/05/19 03:10:07;;;;;;;12.6;9.7;;;;;;;-132.3;0;78320;;;;
2023/05/19 03:21:06;;;;;;;12.6;9.7;;;;;;;-132.3;0;78310;;;;
2023/05/19 03:32:06;;;;;;;10.4;6.7;;;;;;;-132.3;0;78300;;;;
2023/05/19 03:42:06;;;;;;;10.4;6.7;;;;;;;-132.3;0;78300;;;;
2023/05/19 03:52:06;;;;;;;10.4;6.7;;;;;;;-132.3;0;78290;;;;
2023/05/19 04:02:06;;;;;;;11.5;6.6;;;;;;;-132.3;0;78280;;;;
2023/05/19 04:13:06;;;;;;;11.5;6.6;;;;;;;-132.3;0;78270;;;;
2023/05/19 04:23:07;;;;;;;11.5;6.6;;;;;;;-132.3;0;78250;;;;
2023/05/19 04:33:06;;;;;;;14;6.9;;;;;;;-132.3;0;78240;;;;
2023/05/19 04:44:06;;;;;;;14;6.9;;;;;;;-132.3;0;78210;;;;
2023/05/19 04:54:06;;;;;;;16.6;9.9;;;;;;;-132.3;0;78190;;;;
2023/05/19 05:04:06;;;;;;;16.6;9.9;;;;;;;-132.3;0;78180;;;;
2023/05/19 05:14:06;;;;;;;16.6;9.9;;;;;;;-132.3;0;78150;;;;
2023/05/19 05:24:06;;;;;;;13.1;8.7;;;;;;;-132.3;0;78150;;;;
2023/05/19 05:34:06;;;;;;;13.1;8.7;;;;;;;-132.3;0;78130;;;;
2023/05/19 05:44:06;;;;;;;13.1;8.7;;;;;;;-132.3;0;78100;;;;
2023/05/19 05:55:06;;;;;;;16.9;9.6;;;;;;;-132.3;0;78060;;;;
2023/05/19 06:06:06;;;;;;;16.9;9.6;;;;;;;-132.3;0;78040;;;;
2023/05/19 06:17:06;;;;;;;16.9;9.6;;;;;;;-132.3;0;77990;;;;
2023/05/19 06:28:06;;;;;;;13.8;8.7;;;;;;;-132.3;0;77990;;;;
2023/05/19 06:39:06;;;;;;;13.8;8.7;;;;;;;-132.3;0;78000;;;;
2023/05/19 06:50:06;;;;;;;13.8;8.7;;;;;;;-132.3;0;77960;;;;
2023/05/19 07:00:08;;;;;;;14.6;9.9;;;;;;;-132.3;0;77950;;;;
2023/05/19 07:11:06;;;;;;;14.6;9.9;;;;;;;-132.3;0;77920;;;;
2023/05/19 07:22:06;;;;;;;14.6;9.9;;;;;;;-132.3;0;77910;;;;
2023/05/19 07:33:07;;;;;;;14.2;9.8;;;;;;;-132.3;0;77870;;;;
2023/05/19 07:44:06;;;;;;;14.2;9.8;;;;;;;-132.3;0;77890;;;;
2023/05/19 07:54:07;;;;;;;14.3;10.7;;;;;;;-132.3;0;77880;;;;
2023/05/19 08:04:06;;;;;;;14.3;10.7;;;;;;;-132.3;0;77920;;;;
2023/05/19 08:14:06;;;;;;;14.3;10.7;;;;;;;-132.3;0;77810;;;;
2023/05/19 08:24:06;;;;;;;14.6;10.7;;;;;;;-132.3;0;77790;;;;
2023/05/19 08:35:06;;;;;;;14.6;10.7;;;;;;;-132.3;0;77800;;;;
2023/05/19 08:45:06;;;;;;;14.6;10.7;;;;;;;-132.3;0;77770;;;;
2023/05/19 08:56:09;;;;;;;12.6;9.6;;;;;;;-132.3;0;77810;;;;
2023/05/19 09:06:07;;;;;;;12.6;9.6;;;;;;;-132.3;0;77840;;;;
2023/05/19 09:16:06;;;;;;;12.6;9.6;;;;;;;-132.3;0;77830;;;;
2023/05/19 09:27:06;;;;;;;12.5;9.1;;;;;;;-132.3;0;77820;;;;
2023/05/19 09:38:06;;;;;;;12.5;9.1;;;;;;;-132.3;0;77760;;;;
2023/05/19 09:48:06;;;;;;;12.5;9.1;;;;;;;-132.3;0;77720;;;;
2023/05/19 09:58:06;;;;;;;13.6;10;;;;;;;-132.3;0;77750;;;;
2023/05/19 10:08:09;;;;;;;13.6;10;;;;;;;-132.3;0;77730;;;;
2023/05/19 10:19:06;;;;;;;13.6;10;;;;;;;-132.3;0;77740;;;;
2023/05/19 10:30:06;;;;;;;10.8;8.3;;;;;;;-132.3;0;77720;;;;
2023/05/19 10:41:06;;;;;;;10.8;8.3;;;;;;;-132.3;0;77690;;;;
2023/05/19 10:51:10;;;;;;;10.8;8.3;;;;;;;-132.3;0;77720;;;;
2023/05/19 11:02:06;;;;;;;12.3;8.3;;;;;;;-132.3;0;77700;;;;
2023/05/19 11:12:06;;;;;;;12.3;8.3;;;;;;;-132.3;0;77670;;;;
2023/05/19 11:22:06;;;;;;;12.3;8.3;;;;;;;-132.3;0;77660;;;;
2023/05/19 11:32:06;;;;;;;13.1;7.5;;;;;;;-132.3;0;77620;;;;
2023/05/19 11:42:06;;;;;;;13.1;7.5;;;;;;;-132.3;0;77520;;;;
2023/05/19 11:52:06;;;;;;;13.1;7.5;;;;;;;-132.3;0;77500;;;;
2023/05/19 12:03:06;;;;;;;10.2;7;;;;;;;-132.3;0;77490;;;;
2023/05/19 12:13:08;;;;;;;10.2;7;;;;;;;-132.3;0;77550;;;;
2023/05/19 12:23:06;;;;;;;11.5;7.7;;;;;;;-132.3;0;77610;;;;
2023/05/19 12:34:07;;;;;;;11.5;7.7;;;;;;;-132.3;0;77630;;;;
2023/05/19 12:45:06;;;;;;;11.5;7.7;;;;;;;-132.3;0;77630;;;;
2023/05/19 12:56:07;;;;;;;9.5;6.8;;;;;;;-132.3;0;77660;;;;
2023/05/19 13:06:06;;;;;;;9.5;6.8;;;;;;;-132.3;0;77680;;;;
2023/05/19 13:17:06;;;;;;;9.5;6.8;;;;;;;-132.3;0;77690;;;;
2023/05/19 13:27:06;;;;;;;12.4;8.4;;;;;;;-132.3;0;77720;;;;
2023/05/19 13:38:06;;;;;;;12.4;8.4;;;;;;;-132.3;0;77670;;;;
2023/05/19 13:48:06;;;;;;;12.4;8.4;;;;;;;-132.3;0;77690;;;;
2023/05/19 13:58:09;;;;;;;15.6;13.6;;;;;;;-132.3;0;77750;;;;
2023/05/19 14:09:06;;;;;;;15.6;13.6;;;;;;;-132.3;0;77740;;;;
2023/05/19 14:20:07;;;;;;;15.6;13.6;;;;;;;-132.3;0;77740;;;;
2023/05/19 14:30:06;;;;;;;13.8;10.6;;;;;;;-132.3;0;77740;;;;
2023/05/19 14:41:06;;;;;;;13.8;10.6;;;;;;;-132.3;0;77730;;;;
2023/05/19 14:51:06;;;;;;;13.8;10.6;;;;;;;-132.3;0;77730;;;;
2023/05/19 15:02:06;;;;;;;18.3;15.3;;;;;;;-132.3;0;77760;;;;
2023/05/19 15:12:06;;;;;;;18.3;15.3;;;;;;;-132.3;0;77780;;;;
2023/05/19 15:22:06;;;;;;;18.3;15.3;;;;;;;-132.3;0;77780;;;;
2023/05/19 15:33:06;;;;;;;16.9;14.4;;;;;;;-132.3;0;77810;;;;
2023/05/19 15:43:06;;;;;;;16.9;14.4;;;;;;;-132.3;0;77830;;;;
2023/05/19 15:53:07;;;;;;;14.9;12.1;;;;;;;-132.3;0;77830;;;;
2023/05/19 16:04:06;;;;;;;14.9;12.1;;;;;;;-132.3;0;77850;;;;
2023/05/19 16:14:06;;;;;;;14.9;12.1;;;;;;;-132.3;0;77870;;;;
2023/05/19 16:24:07;;;;;;;18.8;14.2;;;;;;;-132.3;0;77880;;;;
2023/05/19 16:35:06;;;;;;;18.8;14.2;;;;;;;-132.3;0;77890;;;;
2023/05/19 16:45:06;;;;;;;18.8;14.2;;;;;;;-132.3;0;77900;;;;
2023/05/19 16:55:07;;;;;;;16.4;13.7;;;;;;;-132.3;0;77910;;;;
2023/05/19 17:06:06;;;;;;;16.4;13.7;;;;;;;-132.3;0;77920;;;;
2023/05/19 17:16:07;;;;;;;16.4;13.7;;;;;;;-132.3;0;77940;;;;
2023/05/19 17:26:07;;;;;;;17.7;12;;;;;;;-132.3;0;77950;;;;
2023/05/19 17:37:07;;;;;;;17.7;12;;;;;;;-132.3;0;77950;;;;
2023/05/19 17:48:07;;;;;;;17.7;12;;;;;;;-132.3;0;77950;;;;
2023/05/19 17:59:07;;;;;;;19.7;13.2;;;;;;;-132.3;0;77970;;;;
2023/05/19 18:09:07;;;;;;;19.7;13.2;;;;;;;-132.3;0;77990;;;;
2023/05/19 18:19:07;;;;;;;19.7;13.2;;;;;;;-132.3;0;78010;;;;
2023/05/19 18:29:07;;;;;;;17.6;12.4;;;;;;;-132.3;0;78000;;;;
2023/05/19 18:40:07;;;;;;;17.6;12.4;;;;;;;-132.3;0;78020;;;;
2023/05/19 18:51:08;;;;;;;17.6;12.4;;;;;;;-132.3;0;78020;;;;
2023/05/19 19:02:07;;;;;;;15.3;12.5;;;;;;;-132.3;0;78030;;;;
2023/05/19 19:12:07;;;;;;;15.3;12.5;;;;;;;-132.3;0;78040;;;;
2023/05/19 19:23:07;;;;;;;20.5;15.9;;;;;;;-132.3;0;78040;;;;
2023/05/19 19:34:08;;;;;;;20.5;15.9;;;;;;;-132.3;0;78050;;;;
2023/05/19 19:44:07;;;;;;;20.5;15.9;;;;;;;-132.3;0;78050;;;;
2023/05/19 19:54:07;;;;;;;19.8;15.8;;;;;;;-132.3;0;78050;;;;
2023/05/19 20:04:07;;;;;;;19.8;15.8;;;;;;;-132.3;0;78050;;;;
2023/05/19 20:15:07;;;;;;;19.8;15.8;;;;;;;-132.3;0;78040;;;;
2023/05/19 20:25:07;;;;;;;22.9;15.9;;;;;;;-132.3;0;78040;;;;
2023/05/19 20:36:07;;;;;;;22.9;15.9;;;;;;;-132.3;0;78040;;;;
2023/05/19 20:47:07;;;;;;;22.9;15.9;;;;;;;-132.3;0;78050;;;;
2023/05/19 20:57:08;;;;;;;27.1;20.8;;;;;;;-132.3;0;78060;;;;
2023/05/19 21:07:07;;;;;;;27.1;20.8;;;;;;;-132.3;0;78060;;;;
2023/05/19 21:18:07;;;;;;;27.1;20.8;;;;;;;-132.3;0;78080;;;;
2023/05/19 21:29:07;;;;;;;23;17.7;;;;;;;-132.3;0;78080;;;;
2023/05/19 21:39:07;;;;;;;23;17.7;;;;;;;-132.3;0;78080;;;;
2023/05/19 21:50:07;;;;;;;23;17.7;;;;;;;-132.3;0;78090;;;;
2023/05/19 22:00:11;;;;;;;29.1;22.3;;;;;;;-132.3;0;78090;;;;
2023/05/19 22:11:07;;;;;;;29.1;22.3;;;;;;;-132.3;0;78080;;;;
2023/05/19 22:22:07;;;;;;;29.1;22.3;;;;;;;-132.3;0;78100;;;;
2023/05/19 22:33:07;;;;;;;30.6;23.6;;;;;;;-132.3;0;78090;;;;
2023/05/19 22:44:09;;;;;;;30.6;23.6;;;;;;;-132.3;0;78090;;;;
2023/05/19 22:54:07;;;;;;;38.8;29.4;;;;;;;-132.3;0;78100;;;;
2023/05/19 23:05:07;;;;;;;38.8;29.4;;;;;;;-132.3;0;78090;;;;
2023/05/19 23:15:07;;;;;;;38.8;29.4;;;;;;;-132.3;0;78080;;;;
2023/05/19 23:26:07;;;;;;;43.2;30.1;;;;;;;-132.3;0;78090;;;;
2023/05/19 23:37:07;;;;;;;43.2;30.1;;;;;;;-132.3;0;78080;;;;
2023/05/19 23:48:07;;;;;;;43.2;30.1;;;;;;;-132.3;0;78100;;;;
2023/05/19 23:58:07;;;;;;;33.8;22.2;;;;;;;-132.3;0;78090;;;;
